Time;durP1;ratioP1;P1;durP2;ratioP2;P2;SDS_P1;SDS_P2;PMS_P1;PMS_P2;Temp;Humidity;BMP_temperature;BMP_pressure;BME280_temperature;BME280_humidity;BME280_pressure;Samples;Min_cycle;Max_cycle;Signal;HPM_P1;HPM_P2
2021/05/18 00:01:35;;;;;;;10.02;3.03;;;;;;;9.67;48.96;100785.91;4956872;28;20602;-68
2021/05/18 00:04:01;;;;;;;9.38;2.45;;;;;;;9.68;49.24;100787.63;4936739;28;20847;-68
2021/05/18 00:06:26;;;;;;;7.82;2.90;;;;;;;9.68;49.19;100786.75;4935631;28;20051;-69
2021/05/18 00:11:48;;;;;;;5.00;2.28;;;;;;;9.65;49.09;100792.09;4938159;28;20508;-69
2021/05/18 00:14:19;;;;;;;8.02;2.95;;;;;;;9.68;49.00;100795.47;4945241;28;20119;-69
2021/05/18 00:16:46;;;;;;;6.05;3.05;;;;;;;9.64;49.04;100803.47;4934838;28;20901;-69
2021/05/18 00:19:13;;;;;;;8.27;3.00;;;;;;;9.59;49.35;100804.47;4917619;28;20402;-69
2021/05/18 00:21:39;;;;;;;8.73;2.75;;;;;;;9.61;49.40;100799.22;4941066;28;20113;-69
2021/05/18 00:24:05;;;;;;;4.93;3.03;;;;;;;9.61;49.47;100794.00;4940362;28;20035;-68
2021/05/18 00:26:31;;;;;;;6.32;2.90;;;;;;;9.61;49.54;100801.81;4936471;28;20050;-69
2021/05/18 00:28:56;;;;;;;9.75;3.00;;;;;;;9.52;49.67;100791.69;4937944;28;20069;-69
2021/05/18 00:31:22;;;;;;;6.68;2.80;;;;;;;9.51;49.82;100783.03;4944186;28;20111;-69
2021/05/18 00:33:48;;;;;;;7.70;3.30;;;;;;;9.19;49.97;100790.28;4936470;28;20019;-69
2021/05/18 00:36:14;;;;;;;10.82;3.28;;;;;;;9.33;50.47;100797.59;4938000;28;20092;-69
2021/05/18 00:38:40;;;;;;;8.77;3.13;;;;;;;9.31;50.07;100807.22;4951996;28;20054;-69
2021/05/18 00:41:07;;;;;;;10.25;3.45;;;;;;;9.35;50.16;100803.63;4940020;28;20114;-69
2021/05/18 00:43:35;;;;;;;7.40;2.75;;;;;;;9.42;49.61;100806.84;4952103;28;20054;-68
2021/05/18 00:46:01;;;;;;;5.47;4.05;;;;;;;9.30;50.34;100807.31;4921275;28;20034;-68
2021/05/18 00:48:27;;;;;;;8.57;3.30;;;;;;;9.40;49.67;100801.69;4934072;28;20040;-69
2021/05/18 00:50:58;;;;;;;9.60;3.53;;;;;;;9.45;50.14;100813.72;4938238;28;20042;-69
2021/05/18 00:53:24;;;;;;;9.65;3.08;;;;;;;9.47;49.85;100802.31;4938800;28;20541;-69
2021/05/18 00:58:44;;;;;;;9.60;3.22;;;;;;;9.40;49.93;100806.91;4919779;28;20050;-69
2021/05/18 01:01:19;;;;;;;7.50;3.80;;;;;;;9.48;49.87;100805.78;4945437;28;20031;-70
2021/05/18 01:03:50;;;;;;;7.22;3.30;;;;;;;9.33;50.34;100818.47;4941803;28;20133;-68
2021/05/18 01:06:21;;;;;;;9.07;3.80;;;;;;;9.31;50.30;100815.06;4940423;28;20051;-68
2021/05/18 01:08:49;;;;;;;8.50;3.88;;;;;;;9.34;50.67;100812.34;4934364;28;20042;-68
2021/05/18 01:11:19;;;;;;;9.07;3.55;;;;;;;9.19;50.32;100815.50;4938981;28;20034;-69
2021/05/18 01:13:45;;;;;;;8.30;3.70;;;;;;;9.26;50.81;100821.34;4935626;28;20019;-69
2021/05/18 01:16:11;;;;;;;8.10;4.03;;;;;;;9.40;50.18;100819.94;4939478;28;20070;-69
2021/05/18 01:18:43;;;;;;;5.80;3.05;;;;;;;9.40;50.49;100819.94;4934395;28;20054;-69
2021/05/18 01:21:11;;;;;;;11.50;3.65;;;;;;;9.43;49.96;100823.34;4942033;28;20036;-69
2021/05/18 01:23:37;;;;;;;7.03;3.63;;;;;;;9.32;50.41;100831.56;4941799;28;20027;-69
2021/05/18 01:26:04;;;;;;;7.65;3.85;;;;;;;9.47;50.49;100828.41;4942615;28;20030;-69
2021/05/18 01:28:30;;;;;;;11.63;3.47;;;;;;;9.38;50.12;100829.56;4940009;28;20490;-69
2021/05/18 01:30:57;;;;;;;7.40;3.10;;;;;;;9.50;50.48;100830.03;4939084;28;20246;-69
2021/05/18 01:33:24;;;;;;;8.02;3.42;;;;;;;9.49;50.27;100834.41;4939442;28;20090;-69
2021/05/18 01:35:51;;;;;;;8.30;3.85;;;;;;;9.33;50.96;100833.28;4942946;28;20042;-68
2021/05/18 01:38:21;;;;;;;8.07;2.97;;;;;;;9.40;50.74;100830.38;4946967;28;20028;-69
2021/05/18 01:43:33;;;;;;;13.27;4.32;;;;;;;9.39;50.67;100827.84;4937298;28;20073;-69
2021/05/18 01:45:59;;;;;;;10.23;3.80;;;;;;;9.27;51.15;100829.09;4938010;28;20063;-69
2021/05/18 01:48:25;;;;;;;11.68;4.22;;;;;;;9.32;51.26;100835.03;4943220;28;20039;-69
2021/05/18 01:50:50;;;;;;;9.25;3.85;;;;;;;9.36;50.96;100839.22;4956533;28;20047;-69
2021/05/18 01:53:19;;;;;;;8.05;4.20;;;;;;;9.26;51.15;100840.47;4944460;28;20034;-69
2021/05/18 01:56:01;;;;;;;10.60;4.30;;;;;;;9.39;50.84;100844.34;4938915;28;20058;-69
2021/05/18 01:58:26;;;;;;;11.77;4.28;;;;;;;9.39;51.34;100843.50;4944655;28;20122;-69
2021/05/18 02:01:08;;;;;;;6.68;3.50;;;;;;;9.45;51.14;100842.41;4947597;28;20034;-69
2021/05/18 02:03:34;;;;;;;7.03;4.68;;;;;;;9.41;51.12;100846.91;4940424;28;20043;-69
2021/05/18 02:06:01;;;;;;;12.02;4.20;;;;;;;9.36;50.90;100852.25;4938908;28;20031;-69
2021/05/18 02:08:35;;;;;;;8.18;3.67;;;;;;;9.33;51.58;100854.97;4945481;28;20068;-69
2021/05/18 02:11:04;;;;;;;9.93;3.65;;;;;;;9.19;51.74;100854.63;4940158;28;20031;-68
2021/05/18 02:13:31;;;;;;;6.97;3.67;;;;;;;9.41;51.17;100862.56;4942980;28;20028;-68
2021/05/18 02:16:09;;;;;;;8.40;3.50;;;;;;;9.47;51.19;100846.66;4939636;28;20075;-69
2021/05/18 02:21:42;;;;;;;11.75;4.15;;;;;;;9.39;51.24;100861.75;4941227;28;20441;-68
2021/05/18 02:26:52;;;;;;;9.13;4.20;;;;;;;9.19;51.74;100862.44;4938146;28;20118;-68
2021/05/18 02:29:18;;;;;;;9.60;4.20;;;;;;;9.16;52.28;100863.41;4924256;28;20577;-69
2021/05/18 02:31:45;;;;;;;12.00;4.43;;;;;;;9.31;52.05;100869.84;4924091;28;20130;-68
2021/05/18 02:34:38;;;;;;;14.82;4.35;;;;;;;9.33;51.93;100873.25;4939478;28;20110;-68
2021/05/18 02:37:04;;;;;;;7.90;3.85;;;;;;;9.36;52.02;100873.13;4939124;28;20035;-69
2021/05/18 02:39:29;;;;;;;7.78;4.43;;;;;;;9.24;51.96;100876.16;4940361;28;20051;-69
2021/05/18 02:41:55;;;;;;;14.40;4.75;;;;;;;9.23;51.95;100879.69;4936202;28;20039;-69
2021/05/18 02:44:31;;;;;;;7.80;4.18;;;;;;;9.24;52.56;100870.94;4939571;28;20505;-69
2021/05/18 02:49:48;;;;;;;9.17;5.13;;;;;;;8.77;53.56;100876.00;4937118;28;20114;-69
2021/05/18 02:52:13;;;;;;;10.02;5.85;;;;;;;9.01;53.19;100873.47;4939935;28;20123;-68
2021/05/18 02:54:46;;;;;;;9.15;4.22;;;;;;;8.97;53.07;100872.75;4929226;28;20354;-69
2021/05/18 02:57:13;;;;;;;9.98;4.88;;;;;;;9.08;52.90;100870.63;4937161;28;20061;-69
2021/05/18 02:59:39;;;;;;;10.07;6.13;;;;;;;8.41;54.66;100880.59;4943909;28;20164;-69
2021/05/18 03:02:04;;;;;;;10.60;5.22;;;;;;;8.98;53.57;100880.53;4941548;28;20702;-69
2021/05/18 03:04:31;;;;;;;11.75;5.15;;;;;;;9.13;52.90;100881.75;4935772;28;20050;-69
2021/05/18 03:06:59;;;;;;;14.93;5.70;;;;;;;8.84;53.24;100880.09;4954856;28;20035;-69
2021/05/18 03:09:25;;;;;;;10.70;5.53;;;;;;;8.51;54.68;100880.25;4934923;28;20098;-69
2021/05/18 03:11:53;;;;;;;12.98;6.35;;;;;;;8.75;53.79;100888.22;4938850;28;20065;-69
2021/05/18 03:14:20;;;;;;;12.80;6.43;;;;;;;9.08;53.04;100880.22;4940035;28;20027;-69
2021/05/18 03:16:47;;;;;;;9.55;5.60;;;;;;;9.08;52.49;100883.66;4941961;28;20054;-69
2021/05/18 03:19:15;;;;;;;15.40;6.03;;;;;;;9.11;52.73;100886.16;4937060;28;20053;-69
2021/05/18 03:21:42;;;;;;;11.45;5.70;;;;;;;9.11;52.76;100885.31;4939657;28;20043;-69
2021/05/18 03:24:09;;;;;;;8.40;5.80;;;;;;;8.86;53.91;100885.28;4937988;28;20114;-69
2021/05/18 03:26:36;;;;;;;12.43;6.75;;;;;;;8.84;53.58;100881.88;4953245;28;20035;-69
2021/05/18 03:29:16;;;;;;;14.30;6.38;;;;;;;8.93;53.65;100895.44;4937602;28;20042;-69
2021/05/18 03:34:36;;;;;;;14.13;7.07;;;;;;;8.82;53.40;100896.69;4939304;28;20110;-69
2021/05/18 03:37:17;;;;;;;12.60;7.47;;;;;;;8.78;53.63;100893.34;4939923;28;20039;-69
2021/05/18 03:39:45;;;;;;;10.95;6.15;;;;;;;8.96;53.49;100897.09;4938079;28;20042;-69
2021/05/18 03:42:23;;;;;;;11.10;6.68;;;;;;;8.86;53.67;100901.75;4926196;28;20067;-69
2021/05/18 03:58:37;;;;;;;12.35;6.22;;;;;;;8.72;54.11;100893.56;4935823;28;20042;-69
2021/05/18 04:17:33;;;;;;;9.60;6.25;;;;;;;8.96;53.50;100908.41;4933482;28;20046;-69
2021/05/18 04:25:29;;;;;;;13.70;7.03;;;;;;;9.03;53.37;100913.38;4938731;28;20114;-69
2021/05/18 04:38:56;;;;;;;8.45;4.85;;;;;;;9.71;52.37;100931.06;4941332;28;20793;-69
2021/05/18 04:41:49;;;;;;;10.30;5.70;;;;;;;9.19;52.64;100932.84;4936485;28;20035;-69
2021/05/18 04:52:12;;;;;;;9.10;5.53;;;;;;;9.44;52.43;100924.19;4938795;28;20043;-69
2021/05/18 05:08:01;;;;;;;9.50;6.47;;;;;;;8.68;54.28;100937.03;4939332;28;20035;-68
2021/05/18 05:15:42;;;;;;;12.10;6.47;;;;;;;9.30;52.64;100948.16;4941443;28;20043;-69
2021/05/18 05:18:12;;;;;;;11.70;5.63;;;;;;;9.49;52.34;100943.16;4948836;28;20039;-69
2021/05/18 05:20:39;;;;;;;12.55;6.82;;;;;;;8.64;53.47;100940.63;4941628;28;20035;-69
2021/05/18 05:23:05;;;;;;;13.32;6.57;;;;;;;9.11;52.65;100942.69;4941082;28;20643;-69
2021/05/18 05:25:30;;;;;;;13.02;6.82;;;;;;;9.21;52.34;100949.31;4939851;28;20179;-69
2021/05/18 05:27:56;;;;;;;11.52;5.82;;;;;;;9.46;52.59;100951.94;4936899;28;20036;-69
2021/05/18 05:30:22;;;;;;;9.13;5.28;;;;;;;9.62;52.03;100954.03;4943713;28;20039;-69
2021/05/18 05:32:48;;;;;;;9.05;5.55;;;;;;;9.77;51.51;100959.56;4955401;28;20512;-69
2021/05/18 05:35:15;;;;;;;12.40;6.25;;;;;;;9.72;51.59;100961.47;4938346;28;20040;-68
2021/05/18 05:37:40;;;;;;;9.68;5.28;;;;;;;9.62;51.24;100972.28;4947606;28;20061;-69
2021/05/18 05:40:07;;;;;;;10.15;5.22;;;;;;;9.82;51.15;100967.25;4937470;28;20410;-69
2021/05/18 05:42:32;;;;;;;10.40;5.57;;;;;;;9.75;51.30;100974.41;4940028;28;20057;-69
2021/05/18 05:44:58;;;;;;;12.20;4.82;;;;;;;9.87;50.74;100974.91;4942070;28;20537;-68
2021/05/18 05:47:24;;;;;;;9.40;5.00;;;;;;;9.55;51.69;100974.25;4940740;28;20047;-69
2021/05/18 05:49:49;;;;;;;8.68;5.10;;;;;;;10.05;51.14;100987.31;4938616;28;20031;-68
2021/05/18 05:52:20;;;;;;;8.15;5.82;;;;;;;9.54;51.56;100978.63;4946386;28;20105;-68
2021/05/18 05:54:46;;;;;;;10.27;4.93;;;;;;;9.77;50.94;100984.81;4925950;28;20417;-69
2021/05/18 05:57:12;;;;;;;9.07;5.22;;;;;;;9.44;51.96;100986.81;4939766;28;20038;-69
2021/05/18 05:59:38;;;;;;;10.27;5.60;;;;;;;9.23;52.04;100989.22;4939002;28;20046;-69
2021/05/18 06:02:04;;;;;;;7.03;4.80;;;;;;;10.11;50.81;100989.72;4940969;28;20035;-69
2021/05/18 06:04:30;;;;;;;9.48;5.07;;;;;;;9.85;51.04;100990.63;4937455;28;20047;-69
2021/05/18 06:06:56;;;;;;;8.25;5.10;;;;;;;9.78;50.93;100992.56;4941411;28;20024;-69
2021/05/18 06:09:23;;;;;;;9.02;5.63;;;;;;;9.77;51.13;100990.03;4943720;28;20578;-69
2021/05/18 06:12:07;;;;;;;8.90;4.57;;;;;;;9.27;52.23;100996.03;4936890;28;20114;-68
2021/05/18 06:36:56;;;;;;;10.57;5.07;;;;;;;9.37;52.14;101020.91;4940673;28;20122;-69
2021/05/18 06:47:01;;;;;;;10.05;5.63;;;;;;;9.30;53.40;101031.63;4934884;28;20138;-70
2021/05/18 06:49:27;;;;;;;8.30;5.15;;;;;;;9.40;53.82;101033.84;4939558;28;20061;-70
2021/05/18 06:51:52;;;;;;;9.55;5.72;;;;;;;9.19;54.11;101031.97;4939413;28;20404;-69
2021/05/18 06:54:18;;;;;;;9.85;6.45;;;;;;;9.49;53.74;101045.75;4942203;28;20493;-69
2021/05/18 06:56:46;;;;;;;10.30;5.60;;;;;;;9.77;52.57;101043.09;4935396;28;20087;-69
2021/05/18 07:01:38;;;;;;;9.70;5.70;;;;;;;9.19;54.19;101045.00;4938358;28;20050;-69
2021/05/18 07:04:08;;;;;;;7.93;6.10;;;;;;;8.70;55.25;101047.31;4955607;28;20027;-69
2021/05/18 07:06:55;;;;;;;10.90;5.38;;;;;;;9.04;54.75;101045.47;4939793;28;20044;-69
2021/05/18 07:09:20;;;;;;;9.45;5.93;;;;;;;9.38;54.57;101061.75;4938753;28;20054;-69
2021/05/18 07:11:46;;;;;;;12.73;4.63;;;;;;;9.32;53.87;101051.53;4929212;28;20473;-70
2021/05/18 07:14:11;;;;;;;10.45;5.15;;;;;;;9.24;54.50;101061.34;4939635;28;20083;-70
2021/05/18 07:16:37;;;;;;;9.82;5.20;;;;;;;9.72;53.17;101059.78;4940108;28;20040;-69
2021/05/18 07:19:04;;;;;;;9.73;5.28;;;;;;;9.99;53.30;101063.25;4935568;28;20019;-69
2021/05/18 07:21:29;;;;;;;14.73;5.78;;;;;;;10.35;53.21;101065.50;4941735;28;20035;-70
2021/05/18 07:23:56;;;;;;;10.82;6.30;;;;;;;10.80;50.76;101062.09;4940523;28;20691;-69
2021/05/18 07:26:21;;;;;;;8.13;6.10;;;;;;;10.11;52.16;101067.22;4941005;28;20088;-70
2021/05/18 07:28:47;;;;;;;10.20;5.93;;;;;;;10.76;51.75;101071.81;4937925;28;20540;-69
2021/05/18 07:31:12;;;;;;;6.80;5.13;;;;;;;10.88;50.51;101065.28;4943255;28;20039;-70
2021/05/18 07:33:38;;;;;;;8.70;5.10;;;;;;;11.03;51.02;101064.69;4942856;28;20046;-69
2021/05/18 07:36:10;;;;;;;12.57;5.32;;;;;;;10.75;50.55;101069.22;4942040;28;20066;-70
2021/05/18 07:38:42;;;;;;;7.43;4.78;;;;;;;11.89;47.74;101070.88;4935902;28;20087;-70
2021/05/18 07:41:09;;;;;;;7.60;5.95;;;;;;;11.51;47.07;101064.56;4956785;28;20050;-68
2021/05/18 07:43:35;;;;;;;9.30;5.30;;;;;;;11.96;46.61;101063.59;4953395;28;20036;-69
2021/05/18 07:46:03;;;;;;;13.15;7.80;;;;;;;12.51;47.86;101066.41;4942064;28;20047;-69
2021/05/18 08:07:12;;;;;;;3.85;2.72;;;;;;;16.59;35.86;101056.91;4935390;28;20121;-71
2021/05/18 08:09:51;;;;;;;4.47;2.65;;;;;;;15.72;38.54;101064.81;4935179;28;20671;-71
2021/05/18 08:12:16;;;;;;;4.50;2.50;;;;;;;14.86;37.35;101067.06;4935170;28;20050;-70
2021/05/18 08:14:48;;;;;;;3.15;1.90;;;;;;;13.91;38.95;101060.59;4933712;28;20043;-70
2021/05/18 08:17:20;;;;;;;2.85;2.17;;;;;;;13.29;40.47;101064.53;4935176;28;20043;-71
2021/05/18 08:47:53;;;;;;;3.15;1.95;;;;;;;12.45;41.31;101085.03;4937322;28;20079;-70
2021/05/18 09:33:27;;;;;;;4.65;1.77;;;;;;;13.19;41.07;101100.91;4941338;28;20665;-69
2021/05/18 09:47:51;;;;;;;2.70;1.77;;;;;;;14.67;38.92;101096.13;4936873;28;20053;-70
2021/05/18 10:38:46;;;;;;;3.00;1.88;;;;;;;14.66;35.53;101105.81;4934573;28;20035;-70
2021/05/18 10:41:17;;;;;;;4.43;1.27;;;;;;;14.79;35.69;101111.28;4938570;28;20576;-69
2021/05/18 10:43:44;;;;;;;2.10;1.02;;;;;;;15.01;37.39;101095.13;4935460;28;20138;-69
2021/05/18 10:46:16;;;;;;;3.80;1.80;;;;;;;14.77;37.87;101103.44;4958185;28;20042;-69
2021/05/18 10:48:53;;;;;;;5.70;1.55;;;;;;;14.71;38.62;101113.47;4938364;28;20668;-70
2021/05/18 10:51:35;;;;;;;4.15;1.70;;;;;;;14.31;38.23;101105.84;4937638;28;20035;-69
2021/05/18 10:54:19;;;;;;;6.38;1.80;;;;;;;14.21;39.04;101109.91;4936185;28;20043;-70
2021/05/18 10:57:00;;;;;;;3.53;1.80;;;;;;;14.40;38.19;101107.16;4931705;28;20046;-69
2021/05/18 10:59:27;;;;;;;4.35;1.15;;;;;;;14.72;37.64;101113.38;4939166;28;20111;-70
2021/05/18 11:02:01;;;;;;;3.95;1.38;;;;;;;14.26;38.72;101109.66;4940648;28;20032;-69
2021/05/18 11:04:33;;;;;;;2.35;1.55;;;;;;;14.55;38.13;101108.16;4947538;28;20043;-69
2021/05/18 11:07:01;;;;;;;3.67;1.65;;;;;;;14.15;38.57;101110.22;4944140;28;20028;-70
2021/05/18 11:09:28;;;;;;;2.65;1.30;;;;;;;14.02;39.21;101115.25;4942403;28;20039;-70
2021/05/18 11:11:59;;;;;;;2.83;2.08;;;;;;;14.68;38.84;101116.22;4934657;28;20077;-70
2021/05/18 11:14:41;;;;;;;3.53;1.25;;;;;;;14.93;37.62;101114.00;4939493;28;20500;-70
2021/05/18 11:17:17;;;;;;;2.08;1.80;;;;;;;14.59;38.49;101109.72;4937172;28;20115;-69
2021/05/18 11:19:53;;;;;;;2.63;1.02;;;;;;;14.62;38.38;101114.78;4921427;28;20486;-69
2021/05/18 11:23:20;;;;;;;2.35;1.52;;;;;;;15.01;38.20;101107.44;4938196;28;20039;-68
2021/05/18 11:25:06;;;;;;;5.13;1.48;;;;;;;13.99;38.95;101114.56;4937168;28;20047;-69
2021/05/18 11:27:32;;;;;;;3.13;1.65;;;;;;;14.30;39.28;101112.06;4924397;28;20062;-69
2021/05/18 11:29:58;;;;;;;1.65;1.05;;;;;;;13.82;38.93;101118.88;4939437;28;20671;-69
2021/05/18 11:32:23;;;;;;;5.93;1.65;;;;;;;13.45;40.08;101115.41;4938241;28;20079;-70
2021/05/18 11:35:02;;;;;;;5.70;1.40;;;;;;;13.84;40.29;101117.00;4925038;28;20465;-70
2021/05/18 11:37:30;;;;;;;3.50;1.90;;;;;;;13.39;40.36;101114.84;4936363;28;20074;-69
2021/05/18 11:40:13;;;;;;;2.15;1.85;;;;;;;13.24;40.45;101121.66;4927263;29;20074;-69
2021/05/18 11:42:39;;;;;;;3.28;1.98;;;;;;;12.99;41.45;101124.59;4941537;28;20038;-70
2021/05/18 11:45:07;;;;;;;4.40;1.45;;;;;;;13.48;40.34;101120.50;4922540;28;20437;-69
2021/05/18 11:47:32;;;;;;;3.45;2.03;;;;;;;13.19;40.36;101131.53;4940648;28;20035;-70
2021/05/18 11:49:58;;;;;;;8.57;2.00;;;;;;;13.44;40.24;101129.44;4940052;28;20032;-69
2021/05/18 11:52:24;;;;;;;5.07;1.75;;;;;;;13.57;40.29;101128.91;4944593;28;20053;-69
2021/05/18 11:54:49;;;;;;;4.07;1.88;;;;;;;13.78;38.22;101125.19;4939121;28;20037;-69
2021/05/18 11:57:15;;;;;;;4.55;1.42;;;;;;;14.20;38.73;101129.22;4951728;28;20125;-69
2021/05/18 11:59:42;;;;;;;3.28;2.10;;;;;;;13.94;38.38;101128.78;4939958;28;20260;-69
2021/05/18 12:02:08;;;;;;;3.47;1.55;;;;;;;13.26;39.59;101136.41;4939484;28;20035;-69
2021/05/18 12:04:38;;;;;;;1.60;0.77;;;;;;;13.20;39.55;101131.44;4942219;28;20036;-69
2021/05/18 12:07:10;;;;;;;4.20;1.48;;;;;;;12.72;41.05;101135.44;4935584;28;20039;-69
2021/05/18 12:09:39;;;;;;;1.60;1.17;;;;;;;12.05;42.10;101134.78;4939014;28;20127;-69
2021/05/18 12:12:10;;;;;;;2.28;0.68;;;;;;;13.08;41.98;101132.88;4943870;28;20035;-69
2021/05/18 12:14:44;;;;;;;2.00;0.82;;;;;;;12.24;43.05;101129.59;4939582;28;20046;-69
2021/05/18 12:17:09;;;;;;;3.47;1.45;;;;;;;13.72;42.69;101129.00;4919410;28;20038;-69
2021/05/18 12:19:39;;;;;;;2.05;1.75;;;;;;;14.18;40.67;101123.19;4939983;28;20413;-69
2021/05/18 12:22:06;;;;;;;5.32;1.27;;;;;;;15.21;38.19;101117.72;4941945;28;20421;-69
2021/05/18 12:24:39;;;;;;;4.18;1.58;;;;;;;15.33;37.70;101135.50;4941248;28;20481;-69
2021/05/18 12:27:05;;;;;;;2.88;1.25;;;;;;;15.35;36.95;101135.44;4938131;28;20039;-69
2021/05/18 12:29:39;;;;;;;2.83;1.02;;;;;;;15.53;37.07;101144.91;4940682;28;20039;-69
2021/05/18 12:32:23;;;;;;;4.45;1.85;;;;;;;15.89;36.59;101140.25;4935652;28;20124;-70
2021/05/18 12:34:54;;;;;;;2.50;1.25;;;;;;;15.90;36.36;101142.78;4944278;28;20058;-70
2021/05/18 12:37:34;;;;;;;4.07;1.63;;;;;;;15.88;35.36;101142.03;4939206;28;20034;-69
2021/05/18 12:40:10;;;;;;;3.88;1.88;;;;;;;15.43;35.68;101141.09;4938593;28;20279;-69
2021/05/18 12:42:37;;;;;;;2.72;1.38;;;;;;;14.19;37.25;101142.44;4938997;28;20071;-69
2021/05/18 12:45:11;;;;;;;2.17;1.05;;;;;;;14.29;36.68;101141.03;4938304;28;20773;-69
2021/05/18 12:47:39;;;;;;;3.85;1.00;;;;;;;14.38;37.62;101142.34;4940998;28;20057;-69
2021/05/18 12:50:07;;;;;;;1.98;0.68;;;;;;;14.86;36.12;101140.72;4939666;28;20142;-69
2021/05/18 12:52:42;;;;;;;3.92;0.85;;;;;;;15.15;35.14;101137.34;4942571;28;20031;-69
2021/05/18 12:55:28;;;;;;;2.10;0.73;;;;;;;16.03;35.41;101148.22;4936665;28;20072;-69
2021/05/18 12:57:57;;;;;;;2.28;0.82;;;;;;;17.06;33.00;101144.63;4932713;28;20047;-69
2021/05/18 13:00:39;;;;;;;1.77;0.73;;;;;;;17.98;30.60;101143.97;4936224;28;20117;-69
2021/05/18 13:03:19;;;;;;;1.88;1.08;;;;;;;15.92;34.54;101155.88;4938383;28;20631;-69
2021/05/18 13:05:47;;;;;;;3.10;0.70;;;;;;;15.59;35.03;101154.25;4935645;28;20511;-70
2021/05/18 13:08:19;;;;;;;1.95;1.00;;;;;;;15.72;35.43;101151.78;4931480;28;20651;-69
2021/05/18 13:13:38;;;;;;;3.13;0.95;;;;;;;16.37;35.50;101152.34;4935953;28;20520;-69
2021/05/18 13:16:17;;;;;;;4.07;1.00;;;;;;;16.14;34.65;101160.78;4931299;28;20032;-71
2021/05/18 13:18:58;;;;;;;4.35;1.27;;;;;;;16.13;35.62;101164.34;4949058;28;20038;-70
2021/05/18 13:21:35;;;;;;;3.47;1.10;;;;;;;15.13;36.37;101168.19;4935878;28;20117;-70
2021/05/18 13:26:37;;;;;;;2.85;1.00;;;;;;;15.74;36.65;101155.16;4931839;28;20145;-70
2021/05/18 13:29:05;;;;;;;3.10;1.60;;;;;;;15.85;35.15;101165.09;4936384;28;20509;-70
2021/05/18 13:31:33;;;;;;;3.13;1.92;;;;;;;15.40;36.19;101153.59;4935638;28;20098;-69
2021/05/18 13:33:59;;;;;;;1.35;0.82;;;;;;;15.34;36.51;101157.41;4945037;28;20035;-70
2021/05/18 13:36:35;;;;;;;2.10;1.10;;;;;;;15.39;37.30;101160.63;4938460;28;20038;-70
2021/05/18 13:39:05;;;;;;;4.03;1.05;;;;;;;16.20;35.15;101158.63;4944777;28;20045;-70
2021/05/18 13:41:31;;;;;;;3.30;1.27;;;;;;;16.73;35.07;101166.91;4937013;28;20487;-70
2021/05/18 13:43:56;;;;;;;2.85;1.60;;;;;;;17.37;33.58;101153.25;4940630;28;20028;-69
2021/05/18 13:46:22;;;;;;;1.70;0.93;;;;;;;18.23;31.74;101159.03;4923987;28;20675;-70
2021/05/18 13:48:48;;;;;;;1.48;0.93;;;;;;;18.12;31.75;101160.66;4935873;28;20043;-70
2021/05/18 13:51:14;;;;;;;3.78;1.00;;;;;;;17.94;31.83;101155.69;4936754;28;20113;-69
2021/05/18 13:53:42;;;;;;;2.22;1.52;;;;;;;17.60;33.39;101157.94;4938339;28;20050;-70
2021/05/18 13:56:08;;;;;;;2.78;0.88;;;;;;;16.67;32.82;101159.34;4943667;28;20504;-69
2021/05/18 13:58:34;;;;;;;1.73;0.75;;;;;;;16.80;33.01;101159.44;4934246;28;20077;-70
2021/05/18 14:01:05;;;;;;;1.95;0.65;;;;;;;16.17;32.73;101165.88;4931390;28;20503;-70
2021/05/18 14:03:31;;;;;;;1.15;0.50;;;;;;;15.79;33.78;101161.00;4938021;28;20032;-69
2021/05/18 14:05:57;;;;;;;5.25;0.80;;;;;;;15.61;33.10;101178.72;4936413;28;20516;-71
2021/05/18 14:08:28;;;;;;;1.65;0.85;;;;;;;16.64;32.97;101167.44;4935099;28;20039;-70
2021/05/18 14:10:55;;;;;;;;;;;;;;;16.49;32.89;101171.00;4937255;28;20694;-70
2021/05/18 14:13:23;;;;;;;1.92;0.60;;;;;;;17.05;32.11;101168.50;4941295;28;20010;-70
2021/05/18 14:15:48;;;;;;;1.60;0.80;;;;;;;17.50;32.20;101169.19;4933767;28;20524;-69
2021/05/18 14:18:15;;;;;;;2.17;0.90;;;;;;;17.74;33.38;101182.56;4938698;28;20122;-70
2021/05/18 14:20:41;;;;;;;1.60;0.82;;;;;;;17.69;30.58;101174.09;4937540;28;20098;-70
2021/05/18 14:23:08;;;;;;;3.13;1.05;;;;;;;17.60;30.73;101175.56;4942864;28;20152;-70
2021/05/18 14:25:35;;;;;;;2.65;1.02;;;;;;;17.72;30.89;101168.66;4943604;28;20536;-69
2021/05/18 14:28:00;;;;;;;2.03;0.95;;;;;;;17.63;30.64;101170.94;4938828;28;20520;-70
2021/05/18 14:30:26;;;;;;;1.77;0.98;;;;;;;16.81;33.11;101180.47;4936816;28;20114;-70
2021/05/18 14:32:52;;;;;;;3.65;1.35;;;;;;;16.62;33.16;101179.88;4940553;28;20439;-70
2021/05/18 14:35:18;;;;;;;4.25;1.00;;;;;;;16.50;33.58;101183.28;4933580;28;20069;-69
2021/05/18 14:37:47;;;;;;;2.28;1.08;;;;;;;15.69;34.48;101194.97;4936659;28;20044;-70
2021/05/18 14:45:29;;;;;;;3.20;0.88;;;;;;;15.57;33.06;101199.16;4935250;28;20841;-69
2021/05/18 14:55:57;;;;;;;2.20;0.98;;;;;;;16.20;33.37;101202.63;4933800;28;20056;-69
2021/05/18 14:58:22;;;;;;;1.20;0.85;;;;;;;16.58;33.31;101196.84;4931677;28;20125;-70
2021/05/18 15:00:48;;;;;;;2.33;1.13;;;;;;;16.14;32.41;101198.53;4935885;28;20041;-69
2021/05/18 15:03:14;;;;;;;1.48;1.05;;;;;;;15.94;33.33;101191.75;4932762;28;20200;-69
2021/05/18 15:05:40;;;;;;;2.10;1.10;;;;;;;15.66;33.71;101199.53;4932445;28;20074;-69
2021/05/18 15:08:06;;;;;;;3.20;0.70;;;;;;;15.63;33.37;101189.19;4940347;28;20501;-69
2021/05/18 15:10:32;;;;;;;1.60;0.70;;;;;;;15.87;33.34;101200.13;4934783;28;20047;-69
2021/05/18 15:12:58;;;;;;;1.30;0.70;;;;;;;16.89;31.78;101195.88;4935324;28;20039;-69
2021/05/18 15:15:25;;;;;;;2.20;1.05;;;;;;;16.87;31.67;101196.88;4935655;28;20054;-69
2021/05/18 15:17:52;;;;;;;2.42;0.95;;;;;;;16.49;31.38;101197.38;4931408;28;20042;-69
2021/05/18 15:20:17;;;;;;;1.92;0.85;;;;;;;16.14;32.11;101203.81;4937680;28;20036;-69
2021/05/18 15:22:43;;;;;;;1.75;0.65;;;;;;;16.15;32.19;101199.38;4934119;28;20467;-69
2021/05/18 15:25:09;;;;;;;1.95;0.60;;;;;;;15.82;32.94;101197.75;4947736;28;21450;-69
2021/05/18 15:27:35;;;;;;;2.75;1.23;;;;;;;15.58;32.43;101206.09;4935593;28;20054;-69
2021/05/18 15:30:02;;;;;;;2.05;0.63;;;;;;;15.64;32.55;101198.78;4920246;28;20121;-69
2021/05/18 15:32:28;;;;;;;5.82;1.05;;;;;;;16.29;31.39;101206.50;4935043;28;20062;-70
2021/05/18 15:34:54;;;;;;;2.00;0.60;;;;;;;16.43;31.07;101203.91;4941402;28;20525;-70
2021/05/18 15:37:19;;;;;;;2.00;0.68;;;;;;;16.25;30.58;101200.56;4940704;28;20511;-69
2021/05/18 15:39:45;;;;;;;1.13;0.43;;;;;;;16.48;30.43;101206.25;4932557;28;20091;-69
2021/05/18 15:42:10;;;;;;;1.35;0.85;;;;;;;16.38;30.87;101211.25;4936597;28;20030;-69
2021/05/18 15:44:36;;;;;;;1.80;0.80;;;;;;;16.23;31.16;101206.88;4934921;28;20040;-69
2021/05/18 15:47:03;;;;;;;0.98;0.40;;;;;;;15.62;31.24;101219.97;4934535;28;20039;-69
2021/05/18 15:49:29;;;;;;;1.33;0.55;;;;;;;15.63;31.02;101212.91;4933812;28;20047;-69
2021/05/18 15:51:56;;;;;;;1.40;0.75;;;;;;;15.14;31.63;101211.97;4937682;28;20070;-68
2021/05/18 15:54:22;;;;;;;1.45;0.40;;;;;;;15.77;31.46;101221.75;4933652;28;20028;-69
2021/05/18 15:56:48;;;;;;;2.75;0.75;;;;;;;15.89;31.09;101224.63;4932058;28;20070;-69
2021/05/18 15:59:13;;;;;;;1.05;0.55;;;;;;;16.03;31.41;101215.94;4930367;28;20461;-69
2021/05/18 16:01:39;;;;;;;2.45;0.68;;;;;;;15.46;32.82;101219.97;4933969;28;20077;-69
2021/05/18 16:04:09;;;;;;;1.83;0.80;;;;;;;15.57;33.32;101221.97;4940074;28;20062;-70
2021/05/18 16:06:39;;;;;;;3.15;0.60;;;;;;;15.57;33.42;101220.22;4933389;28;20039;-69
2021/05/18 16:09:05;;;;;;;3.38;1.35;;;;;;;15.96;32.15;101221.53;4934844;28;20043;-69
2021/05/18 16:11:31;;;;;;;2.55;1.50;;;;;;;15.36;32.77;101224.03;4935632;28;20035;-70
2021/05/18 16:13:57;;;;;;;3.05;0.88;;;;;;;14.94;33.82;101231.47;4941560;28;20113;-70
2021/05/18 16:16:23;;;;;;;2.47;0.82;;;;;;;15.02;33.32;101227.63;4935186;28;20043;-70
2021/05/18 16:18:49;;;;;;;2.28;0.85;;;;;;;15.30;32.63;101224.34;4932403;28;20527;-70
2021/05/18 16:21:17;;;;;;;1.40;0.70;;;;;;;15.68;32.72;101231.94;4941473;28;20036;-71
2021/05/18 16:23:44;;;;;;;1.88;0.85;;;;;;;15.57;33.32;101240.41;4941090;28;20117;-70
2021/05/18 16:26:10;;;;;;;1.92;0.80;;;;;;;15.28;33.40;101234.13;4917171;28;20027;-70
2021/05/18 16:28:36;;;;;;;2.95;1.02;;;;;;;15.34;33.07;101239.91;4935479;28;20040;-70